Terminal Aerodrome Forecast
Issued by NWS

Home | Current Version | Previous Version | Text Only | Print | Product List | Glossary On
Versions: 1 2 3 4 5 6 7 8 9 10 11 12 13 14 15 16 17 18 19 20 21 22 23 24 25 26 27 28 29 30
999
FTUS43 KDLH 272338
TAFHYR
TAF
KHYR 272338Z 2800/2824 19012KT P6SM SCT100
     FM280600 16008KT P6SM VCSH BKN050
     FM280800 16007KT 5SM -RA OVC050
     FM281000 15006KT 3SM -RA OVC015
     FM281300 07004KT 1 1/2SM -RASNPL OVC008
     FM281800 02004KT 3SM -RA OVC008
     FM282100 02006KT P6SM VCSH OVC012=

USA.gov is the U.S. government's official web portal to all federal, state and local government web resources and services.